Time;durP1;ratioP1;P1;durP2;ratioP2;P2;SDS_P1;SDS_P2;PMS_P1;PMS_P2;Temp;Humidity;BMP_temperature;BMP_pressure;BME280_temperature;BME280_humidity;BME280_pressure;Samples;Min_cycle;Max_cycle;Signal;HPM_P1;HPM_P2
2021/04/26 00:00:45;;;;;;;9.43;4.30;;;4.00;61.00;;;;;;5050758;28;20032;-76
2021/04/26 00:03:11;;;;;;;13.55;5.28;;;4.00;60.60;;;;;;5069670;28;20036;-77
2021/04/26 00:05:36;;;;;;;12.82;6.88;;;3.80;60.80;;;;;;5047130;28;20121;-77
2021/04/26 00:08:02;;;;;;;8.82;5.10;;;3.70;61.80;;;;;;5016072;28;20658;-77
2021/04/26 00:10:28;;;;;;;11.80;6.82;;;3.60;62.10;;;;;;5018592;28;20035;-77
2021/04/26 00:12:53;;;;;;;12.07;6.32;;;3.50;61.90;;;;;;5015031;28;20060;-77
2021/04/26 00:15:21;;;;;;;18.20;6.18;;;3.30;63.10;;;;;;5032247;28;20032;-76
2021/04/26 00:17:47;;;;;;;11.35;6.63;;;3.30;63.80;;;;;;5014292;28;20041;-77
2021/04/26 00:20:15;;;;;;;13.77;6.80;;;3.20;64.20;;;;;;5037467;28;20032;-77
2021/04/26 00:22:41;;;;;;;12.63;4.70;;;3.10;65.10;;;;;;5028794;28;20044;-77
2021/04/26 00:25:07;;;;;;;11.63;6.60;;;3.10;63.70;;;;;;5033170;28;20033;-77
2021/04/26 00:27:36;;;;;;;10.20;5.35;;;3.00;64.30;;;;;;5027380;28;20482;-77
2021/04/26 00:30:04;;;;;;;12.15;5.82;;;3.10;63.10;;;;;;5018260;28;20059;-77
2021/04/26 00:32:29;;;;;;;15.77;6.68;;;3.10;63.20;;;;;;5015208;28;20036;-77
2021/04/26 00:34:55;;;;;;;15.95;6.38;;;3.00;63.60;;;;;;5013757;28;20111;-76
2021/04/26 00:37:20;;;;;;;14.27;6.85;;;2.80;64.80;;;;;;5051524;28;20123;-77
2021/04/26 00:39:46;;;;;;;13.85;6.82;;;2.80;65.10;;;;;;5016020;28;20033;-77
2021/04/26 00:42:11;;;;;;;15.55;7.25;;;2.70;66.00;;;;;;5032887;28;20718;-77
2021/04/26 00:44:37;;;;;;;14.10;7.50;;;2.80;65.00;;;;;;5030694;28;20535;-77
2021/04/26 00:47:03;;;;;;;12.88;7.15;;;2.70;65.80;;;;;;5017808;28;20024;-77
2021/04/26 00:49:28;;;;;;;10.80;5.78;;;2.60;67.20;;;;;;5032349;28;20059;-77
2021/04/26 00:51:54;;;;;;;15.60;6.80;;;2.60;66.50;;;;;;5018578;28;20032;-76
2021/04/26 00:54:19;;;;;;;13.60;6.97;;;2.50;67.90;;;;;;5047633;28;20056;-77
2021/04/26 00:56:45;;;;;;;13.27;7.07;;;2.20;68.70;;;;;;5032112;28;20111;-77
2021/04/26 00:59:10;;;;;;;13.60;6.90;;;2.10;69.80;;;;;;5048629;28;20641;-77
2021/04/26 01:01:36;;;;;;;14.38;7.05;;;2.20;70.20;;;;;;5034748;28;20031;-77
2021/04/26 01:04:01;;;;;;;12.82;6.93;;;2.20;70.60;;;;;;5031169;28;20487;-77
2021/04/26 01:06:27;;;;;;;13.00;6.47;;;2.20;70.20;;;;;;5049475;28;20471;-77
2021/04/26 01:08:52;;;;;;;19.85;7.70;;;2.30;69.80;;;;;;5046713;28;20078;-76
2021/04/26 01:11:18;;;;;;;15.80;7.22;;;2.00;69.70;;;;;;5050861;28;20433;-77
2021/04/26 01:14:06;;;;;;;14.25;6.78;;;1.40;71.30;;;;;;5045392;28;20060;-77
2021/04/26 01:16:35;;;;;;;15.90;7.75;;;1.50;75.40;;;;;;5001133;28;20025;-77
2021/04/26 01:19:33;;;;;;;16.35;8.27;;;1.60;77.70;;;;;;5030673;28;20682;-77
2021/04/26 01:22:07;;;;;;;15.93;7.55;;;1.80;76.80;;;;;;5048432;28;20465;-77
2021/04/26 01:24:52;;;;;;;14.05;7.25;;;1.80;76.20;;;;;;5035066;28;20052;-77
2021/04/26 01:27:49;;;;;;;11.63;7.78;;;2.00;73.70;;;;;;5047229;28;20062;-77
2021/04/26 01:30:39;;;;;;;12.18;7.43;;;2.00;75.20;;;;;;5051155;28;20475;-76
2021/04/26 01:33:30;;;;;;;9.75;5.35;;;1.90;75.90;;;;;;5035413;28;20049;-77
2021/04/26 01:35:58;;;;;;;11.95;6.82;;;2.30;72.50;;;;;;5030535;28;20033;-76
2021/04/26 01:38:32;;;;;;;8.98;6.18;;;2.20;71.70;;;;;;5051699;28;20093;-77
2021/04/26 01:40:58;;;;;;;11.38;7.53;;;1.90;72.60;;;;;;5023032;28;20039;-77
2021/04/26 01:43:24;;;;;;;11.02;6.07;;;1.90;73.10;;;;;;5050223;28;20472;-77
2021/04/26 01:45:53;;;;;;;12.48;6.25;;;2.10;71.20;;;;;;5016010;28;20036;-77
2021/04/26 01:48:18;;;;;;;11.88;6.78;;;2.20;70.80;;;;;;5048313;28;20032;-76
2021/04/26 01:50:44;;;;;;;14.07;7.57;;;2.10;70.00;;;;;;5021000;28;20472;-77
2021/04/26 01:53:09;;;;;;;11.82;6.95;;;2.00;70.90;;;;;;5020703;28;20043;-77
2021/04/26 01:55:35;;;;;;;14.85;8.27;;;1.70;73.30;;;;;;5021863;28;20029;-77
2021/04/26 01:58:00;;;;;;;14.23;6.93;;;1.60;74.90;;;;;;5055363;28;20032;-77
2021/04/26 02:00:31;;;;;;;16.50;7.68;;;1.60;76.10;;;;;;5052555;28;20024;-76
2021/04/26 02:02:56;;;;;;;15.27;7.72;;;1.60;75.40;;;;;;5018859;28;20040;-77
2021/04/26 02:05:23;;;;;;;16.17;7.45;;;1.70;74.50;;;;;;5038671;28;20028;-77
2021/04/26 02:07:49;;;;;;;13.65;8.18;;;1.80;73.20;;;;;;5048742;28;20135;-77
2021/04/26 02:10:16;;;;;;;17.95;7.68;;;1.80;72.80;;;;;;5037692;28;20028;-77
2021/04/26 02:12:42;;;;;;;14.65;8.00;;;1.70;74.20;;;;;;5046951;28;20032;-76
2021/04/26 02:15:10;;;;;;;13.57;8.50;;;1.60;74.90;;;;;;5036328;28;20040;-77
2021/04/26 02:17:35;;;;;;;12.45;8.10;;;1.60;75.50;;;;;;5015694;28;20044;-75
2021/04/26 02:20:01;;;;;;;13.77;8.10;;;1.60;75.10;;;;;;5047135;28;20086;-75
2021/04/26 02:22:27;;;;;;;14.45;7.68;;;1.50;75.40;;;;;;5033727;28;20047;-75
2021/04/26 02:24:52;;;;;;;7.05;5.30;;;1.50;75.80;;;;;;5034129;28;20450;-76
2021/04/26 02:27:18;;;;;;;14.02;7.15;;;1.50;73.60;;;;;;5055394;28;20043;-75
2021/04/26 02:29:43;;;;;;;16.00;6.72;;;1.50;73.50;;;;;;5036063;28;20126;-75
2021/04/26 02:32:13;;;;;;;12.85;6.57;;;1.60;73.30;;;;;;5017890;28;20036;-76
2021/04/26 02:34:41;;;;;;;14.35;8.18;;;1.70;73.00;;;;;;5031714;28;20029;-76
2021/04/26 02:37:38;;;;;;;14.48;7.75;;;1.40;74.10;;;;;;5021585;28;20045;-75
2021/04/26 02:40:06;;;;;;;17.38;7.15;;;1.00;77.20;;;;;;5061245;28;20476;-75
2021/04/26 02:42:33;;;;;;;12.73;7.82;;;1.00;78.00;;;;;;5053416;28;20503;-75
2021/04/26 02:44:59;;;;;;;16.95;8.25;;;0.90;78.10;;;;;;5036203;28;20438;-75
2021/04/26 02:47:24;;;;;;;16.33;8.32;;;0.90;78.20;;;;;;5053224;28;20024;-75
2021/04/26 02:49:50;;;;;;;13.38;8.10;;;0.90;78.00;;;;;;5025308;28;20033;-75
2021/04/26 02:52:15;;;;;;;19.70;9.73;;;0.90;76.70;;;;;;5034701;28;20025;-75
2021/04/26 02:54:41;;;;;;;15.52;8.32;;;0.80;78.10;;;;;;5032170;28;20036;-76
2021/04/26 02:57:07;;;;;;;17.65;8.88;;;0.70;77.70;;;;;;5034254;28;20040;-76
2021/04/26 02:59:33;;;;;;;15.32;9.07;;;0.70;79.60;;;;;;5027582;28;20360;-75
2021/04/26 03:01:58;;;;;;;18.60;8.50;;;0.70;78.60;;;;;;5017923;28;20051;-75
2021/04/26 03:04:24;;;;;;;13.20;8.27;;;0.80;78.00;;;;;;5019671;28;20079;-76
2021/04/26 03:06:50;;;;;;;14.98;8.57;;;0.80;76.70;;;;;;5016753;28;20103;-75
2021/04/26 03:09:16;;;;;;;15.80;9.00;;;0.80;78.70;;;;;;5031108;28;20120;-75
2021/04/26 03:11:43;;;;;;;16.67;8.93;;;0.70;78.30;;;;;;5028652;28;20115;-76
2021/04/26 03:14:09;;;;;;;17.13;8.98;;;0.70;78.90;;;;;;5020816;28;20453;-75
2021/04/26 03:16:35;;;;;;;17.38;8.55;;;0.40;80.40;;;;;;5029294;28;20025;-75
2021/04/26 03:19:00;;;;;;;17.00;8.68;;;0.30;82.40;;;;;;5019727;28;20510;-74
2021/04/26 03:21:26;;;;;;;12.50;8.07;;;0.20;83.40;;;;;;5049984;28;20032;-75
2021/04/26 03:23:51;;;;;;;23.20;9.32;;;0.30;82.20;;;;;;5020280;28;20029;-75
2021/04/26 03:26:17;;;;;;;19.92;9.13;;;-0.10;81.00;;;;;;5015233;28;20032;-75
2021/04/26 03:28:42;;;;;;;17.95;8.98;;;0.00;84.60;;;;;;5030809;28;20712;-75
2021/04/26 03:31:08;;;;;;;17.05;9.02;;;0.20;82.80;;;;;;5030848;28;20471;-75
2021/04/26 03:33:34;;;;;;;14.30;8.07;;;0.30;81.10;;;;;;5050966;28;20107;-76
2021/04/26 03:36:00;;;;;;;16.77;9.68;;;0.10;83.60;;;;;;5018184;28;20037;-75
2021/04/26 03:38:26;;;;;;;16.30;8.82;;;0.10;83.40;;;;;;5038826;28;20558;-75
2021/04/26 03:40:52;;;;;;;14.65;9.25;;;0.00;83.40;;;;;;5034107;28;20025;-76
2021/04/26 03:43:17;;;;;;;17.60;8.85;;;-0.20;85.80;;;;;;5045719;28;20035;-75
2021/04/26 03:45:45;;;;;;;13.40;9.52;;;-0.20;85.80;;;;;;5025932;28;20041;-75
2021/04/26 03:48:10;;;;;;;16.23;9.45;;;-0.10;86.20;;;;;;4995888;28;20037;-75
2021/04/26 03:50:36;;;;;;;15.90;9.02;;;-0.10;85.20;;;;;;5048936;28;20389;-76
2021/04/26 03:53:01;;;;;;;16.00;8.63;;;0.10;85.30;;;;;;5046923;28;20039;-76
2021/04/26 03:55:27;;;;;;;18.63;8.73;;;0.00;86.00;;;;;;5031896;28;20421;-75
2021/04/26 03:57:52;;;;;;;18.20;10.05;;;0.10;84.40;;;;;;5065694;28;20037;-76
2021/04/26 04:00:19;;;;;;;14.02;8.85;;;0.30;84.20;;;;;;5056420;28;20123;-75
2021/04/26 04:02:46;;;;;;;14.02;8.82;;;0.20;85.20;;;;;;5012206;28;20377;-75
2021/04/26 04:05:12;;;;;;;14.93;9.48;;;-0.10;86.20;;;;;;5021534;28;20416;-76
2021/04/26 04:07:37;;;;;;;15.38;9.57;;;0.10;84.70;;;;;;5031612;28;20028;-75
2021/04/26 04:10:05;;;;;;;21.55;9.52;;;0.10;85.40;;;;;;5031635;28;20383;-76
2021/04/26 04:12:31;;;;;;;15.00;9.23;;;0.20;85.40;;;;;;5028591;28;20028;-75
2021/04/26 04:14:56;;;;;;;17.27;9.25;;;0.30;81.00;;;;;;5029794;28;20115;-75
2021/04/26 04:17:22;;;;;;;20.70;9.48;;;0.40;79.70;;;;;;5038019;28;20032;-76
2021/04/26 04:19:47;;;;;;;17.70;9.60;;;0.40;79.40;;;;;;5032386;28;20062;-76
2021/04/26 04:22:13;;;;;;;19.00;9.68;;;0.20;81.00;;;;;;5032243;28;20566;-75
2021/04/26 04:24:38;;;;;;;17.20;9.95;;;0.10;84.60;;;;;;5029605;28;20029;-75
2021/04/26 04:27:04;;;;;;;18.67;9.90;;;0.00;85.10;;;;;;5032571;28;20485;-75
2021/04/26 04:29:29;;;;;;;16.63;9.77;;;-0.10;85.90;;;;;;5048847;28;20032;-76
2021/04/26 04:31:55;;;;;;;20.15;11.05;;;0.00;86.30;;;;;;5034088;28;20052;-76
2021/04/26 04:34:21;;;;;;;19.25;9.25;;;0.10;85.50;;;;;;5031089;28;20405;-76
2021/04/26 04:36:47;;;;;;;12.68;8.52;;;0.10;84.30;;;;;;5034066;28;20130;-75
2021/04/26 04:39:12;;;;;;;19.20;10.05;;;0.20;80.80;;;;;;5045527;28;20033;-76
2021/04/26 04:41:38;;;;;;;19.73;10.18;;;0.20;81.40;;;;;;5030936;28;20025;-75
2021/04/26 04:44:04;;;;;;;14.00;10.43;;;0.20;81.90;;;;;;5028752;28;20032;-75
2021/04/26 04:46:29;;;;;;;18.55;10.40;;;0.10;85.00;;;;;;5034842;28;20028;-76
2021/04/26 04:48:55;;;;;;;19.83;10.50;;;-0.10;86.10;;;;;;5030981;28;20507;-75
2021/04/26 04:51:21;;;;;;;21.38;11.73;;;0.10;87.20;;;;;;5020246;28;20550;-75
2021/04/26 04:53:47;;;;;;;22.70;11.93;;;0.20;83.70;;;;;;5028111;28;20060;-76
2021/04/26 04:56:13;;;;;;;26.10;12.18;;;0.20;86.40;;;;;;5019345;28;20031;-75
2021/04/26 04:58:38;;;;;;;24.65;12.52;;;0.20;85.20;;;;;;5014343;28;20033;-75
2021/04/26 05:01:04;;;;;;;23.55;13.00;;;0.20;88.50;;;;;;5043943;28;20432;-76
2021/04/26 05:03:29;;;;;;;33.17;13.88;;;0.60;87.70;;;;;;5034186;28;20395;-76
2021/04/26 05:05:55;;;;;;;26.83;13.50;;;0.60;86.50;;;;;;5030534;28;20025;-76
2021/04/26 05:08:20;;;;;;;30.25;14.43;;;0.80;87.30;;;;;;5036291;28;20138;-76
2021/04/26 05:10:46;;;;;;;26.98;14.15;;;0.90;85.70;;;;;;5045969;28;20083;-76
2021/04/26 05:13:12;;;;;;;24.33;13.60;;;1.00;83.50;;;;;;5034137;28;20138;-75
2021/04/26 05:15:38;;;;;;;34.13;14.32;;;1.10;82.40;;;;;;5025936;28;20059;-75
2021/04/26 05:18:04;;;;;;;28.95;16.42;;;1.20;83.00;;;;;;5035035;28;20094;-76
2021/04/26 05:20:29;;;;;;;36.83;15.75;;;1.40;82.20;;;;;;5044009;28;20137;-76
2021/04/26 05:22:55;;;;;;;32.83;15.55;;;1.50;84.90;;;;;;5034276;28;20517;-76
2021/04/26 05:25:20;;;;;;;32.60;15.32;;;1.60;84.10;;;;;;5072559;28;20492;-76
2021/04/26 05:27:46;;;;;;;26.30;14.75;;;1.70;84.60;;;;;;5021005;28;20412;-77
2021/04/26 05:30:12;;;;;;;28.92;16.33;;;1.80;83.70;;;;;;5020429;28;20032;-76
2021/04/26 05:32:37;;;;;;;32.90;15.27;;;1.90;84.60;;;;;;5036710;28;20394;-76
2021/04/26 05:35:04;;;;;;;29.20;14.82;;;2.00;84.90;;;;;;5047917;28;20041;-76
2021/04/26 05:37:29;;;;;;;24.98;13.77;;;2.20;84.70;;;;;;5052831;28;20503;-76
2021/04/26 05:39:55;;;;;;;31.27;15.38;;;2.30;83.20;;;;;;4987824;28;20057;-76
2021/04/26 05:42:20;;;;;;;30.63;15.73;;;2.50;83.20;;;;;;4999918;28;20036;-76
2021/04/26 05:44:46;;;;;;;30.65;16.58;;;2.60;82.90;;;;;;5016017;28;20140;-77
2021/04/26 05:47:12;;;;;;;29.30;15.57;;;2.60;83.20;;;;;;5011574;28;20119;-76
2021/04/26 05:49:37;;;;;;;26.05;14.65;;;2.60;82.40;;;;;;5014420;28;20048;-75
2021/04/26 05:52:03;;;;;;;22.85;14.68;;;2.80;82.60;;;;;;5029445;28;20381;-75
2021/04/26 05:54:29;;;;;;;34.35;17.00;;;2.90;82.20;;;;;;5035468;28;20082;-75
2021/04/26 05:56:54;;;;;;;31.20;13.20;;;3.10;82.80;;;;;;5018160;28;20112;-75
2021/04/26 05:59:20;;;;;;;22.48;13.20;;;3.30;82.70;;;;;;5023152;28;20032;-75
2021/04/26 06:01:45;;;;;;;19.67;12.77;;;3.40;82.40;;;;;;5019945;28;20025;-75
2021/04/26 06:04:11;;;;;;;22.65;13.18;;;3.50;82.00;;;;;;5040724;28;20387;-75
2021/04/26 06:06:37;;;;;;;20.25;12.05;;;3.60;81.80;;;;;;5050569;28;20029;-75
2021/04/26 06:09:02;;;;;;;25.70;11.63;;;3.90;82.70;;;;;;5038204;28;20047;-76
2021/04/26 06:11:28;;;;;;;22.55;12.30;;;4.00;82.60;;;;;;5037014;28;20119;-75
2021/04/26 06:13:53;;;;;;;19.98;11.90;;;4.10;82.70;;;;;;5036344;28;20025;-75
2021/04/26 06:16:19;;;;;;;25.27;11.75;;;4.30;81.20;;;;;;5035558;28;20031;-76
2021/04/26 06:18:44;;;;;;;14.55;9.77;;;4.40;81.30;;;;;;5036159;28;20032;-76
2021/04/26 06:21:10;;;;;;;18.48;10.70;;;4.50;82.00;;;;;;5049738;28;20086;-75
2021/04/26 06:23:35;;;;;;;19.00;10.30;;;4.60;83.40;;;;;;5017759;28;20028;-75
2021/04/26 06:26:01;;;;;;;18.58;10.20;;;4.70;83.60;;;;;;5036200;28;20514;-75
2021/04/26 06:28:27;;;;;;;21.48;10.13;;;5.00;81.80;;;;;;5017794;28;20036;-75
2021/04/26 06:30:52;;;;;;;13.15;8.05;;;5.20;82.30;;;;;;5051782;28;20497;-75
2021/04/26 06:33:18;;;;;;;15.10;7.88;;;5.30;80.70;;;;;;5050127;28;20052;-75
2021/04/26 06:35:45;;;;;;;15.50;8.73;;;5.60;80.90;;;;;;5046315;28;20087;-75
2021/04/26 06:38:10;;;;;;;17.35;9.30;;;5.70;81.50;;;;;;5019487;28;20036;-75
2021/04/26 06:40:37;;;;;;;16.63;10.85;;;5.80;82.30;;;;;;5036844;28;20051;-75
2021/04/26 06:43:02;;;;;;;16.17;9.93;;;5.80;83.50;;;;;;5006421;28;20080;-76
2021/04/26 06:45:28;;;;;;;13.65;8.38;;;5.90;84.00;;;;;;5033345;28;20024;-75
2021/04/26 06:47:54;;;;;;;14.88;8.57;;;6.10;83.40;;;;;;5016221;28;20029;-75
2021/04/26 06:50:21;;;;;;;14.55;7.88;;;6.30;83.80;;;;;;5035764;28;20409;-75
2021/04/26 06:52:47;;;;;;;15.93;8.90;;;6.50;80.40;;;;;;5016493;28;20040;-75
2021/04/26 06:55:12;;;;;;;15.32;8.02;;;6.70;81.60;;;;;;5034471;28;20503;-75
2021/04/26 06:57:38;;;;;;;10.48;7.20;;;6.70;83.80;;;;;;5029253;28;20097;-75
2021/04/26 07:00:06;;;;;;;17.85;7.25;;;6.90;81.80;;;;;;5033585;28;20486;-75
2021/04/26 07:02:32;;;;;;;12.05;8.73;;;7.10;77.30;;;;;;5051267;28;20086;-75
2021/04/26 07:04:57;;;;;;;16.70;7.53;;;7.20;83.20;;;;;;5020137;28;20029;-75
2021/04/26 07:07:24;;;;;;;12.82;6.40;;;7.30;83.10;;;;;;5033358;28;20575;-75
2021/04/26 07:09:50;;;;;;;16.30;8.00;;;7.60;78.30;;;;;;5014193;28;20056;-75
2021/04/26 07:12:15;;;;;;;11.43;7.35;;;7.70;81.30;;;;;;5048316;28;20063;-75
2021/04/26 07:14:41;;;;;;;14.38;7.63;;;7.90;81.60;;;;;;5046818;28;20054;-75
2021/04/26 07:17:07;;;;;;;14.95;8.02;;;8.00;81.10;;;;;;5021850;28;20518;-76
2021/04/26 07:19:33;;;;;;;14.52;7.93;;;8.30;79.10;;;;;;5032227;28;20086;-75
2021/04/26 07:21:58;;;;;;;8.32;5.65;;;8.30;82.20;;;;;;5037290;28;20021;-75
2021/04/26 07:24:24;;;;;;;14.70;7.35;;;8.40;77.50;;;;;;5017634;28;20042;-76
2021/04/26 07:26:50;;;;;;;9.65;6.18;;;8.60;76.60;;;;;;5018384;28;20021;-76
2021/04/26 07:29:15;;;;;;;8.65;5.38;;;8.70;75.60;;;;;;5049641;28;20024;-75
2021/04/26 07:31:41;;;;;;;9.95;5.97;;;9.10;72.50;;;;;;5016505;28;20127;-76
2021/04/26 07:34:06;;;;;;;11.18;6.60;;;9.30;73.40;;;;;;5045847;28;20112;-75
2021/04/26 07:36:32;;;;;;;9.50;6.22;;;9.30;74.50;;;;;;5051456;28;20159;-75
2021/04/26 07:38:57;;;;;;;9.80;6.60;;;9.40;79.30;;;;;;5049172;28;20055;-75
2021/04/26 07:41:23;;;;;;;9.95;5.90;;;9.60;79.80;;;;;;5034475;28;20047;-76
2021/04/26 07:43:49;;;;;;;13.07;6.07;;;9.70;79.10;;;;;;5032964;28;20043;-76
2021/04/26 07:46:14;;;;;;;7.07;5.00;;;9.90;80.10;;;;;;5032398;28;20052;-75
2021/04/26 07:48:40;;;;;;;12.68;4.85;;;10.00;78.70;;;;;;5033701;28;20447;-75
2021/04/26 07:51:06;;;;;;;5.40;4.22;;;10.20;79.70;;;;;;5017710;28;20037;-76
2021/04/26 07:53:32;;;;;;;10.30;4.88;;;10.40;79.00;;;;;;5037052;28;20040;-75
2021/04/26 07:55:57;;;;;;;8.48;4.63;;;10.50;75.50;;;;;;5028793;28;20266;-76
2021/04/26 07:58:23;;;;;;;7.65;3.95;;;10.90;71.40;;;;;;5034922;28;20322;-75
2021/04/26 08:00:49;;;;;;;7.03;4.15;;;11.00;68.60;;;;;;5033295;28;20098;-76
2021/04/26 08:03:17;;;;;;;7.38;4.68;;;11.20;70.30;;;;;;5035404;28;20044;-76
2021/04/26 08:05:43;;;;;;;5.43;3.90;;;11.20;75.40;;;;;;5030761;28;20052;-76
2021/04/26 08:08:09;;;;;;;6.68;3.63;;;11.20;73.00;;;;;;5033157;28;20115;-76
2021/04/26 08:10:34;;;;;;;4.10;3.60;;;11.30;67.70;;;;;;5032077;28;20070;-76
2021/04/26 08:13:00;;;;;;;4.38;3.58;;;11.40;66.30;;;;;;5019995;28;20553;-77
2021/04/26 08:15:26;;;;;;;7.85;3.88;;;11.50;72.50;;;;;;5030156;28;20109;-75
2021/04/26 08:17:52;;;;;;;5.38;3.40;;;11.80;67.70;;;;;;5038993;28;20488;-77
2021/04/26 08:20:18;;;;;;;9.40;4.00;;;11.90;73.50;;;;;;5037232;28;20085;-76
2021/04/26 08:22:43;;;;;;;4.07;2.83;;;12.10;72.00;;;;;;5018106;28;20035;-76
2021/04/26 08:25:09;;;;;;;5.03;2.78;;;12.20;72.20;;;;;;5019481;28;20025;-77
2021/04/26 08:27:35;;;;;;;6.78;2.75;;;12.90;64.60;;;;;;5034770;28;20028;-77
2021/04/26 08:30:00;;;;;;;3.40;2.33;;;14.30;56.40;;;;;;5035654;28;20383;-76
2021/04/26 08:32:26;;;;;;;4.68;2.60;;;14.10;56.90;;;;;;5032230;28;20482;-77
2021/04/26 08:34:52;;;;;;;4.47;2.22;;;14.10;56.20;;;;;;5032553;28;20048;-77
2021/04/26 08:37:18;;;;;;;5.25;2.00;;;14.40;51.80;;;;;;5049708;28;20033;-76
2021/04/26 08:39:43;;;;;;;2.35;1.80;;;14.40;52.00;;;;;;5008069;28;20043;-77
2021/04/26 08:42:09;;;;;;;3.97;1.98;;;14.00;61.60;;;;;;5017460;28;20044;-77
2021/04/26 08:44:35;;;;;;;4.13;2.13;;;13.90;60.70;;;;;;5033635;28;20082;-77
2021/04/26 08:47:00;;;;;;;2.88;2.05;;;13.80;62.70;;;;;;5049549;28;20030;-77
2021/04/26 08:49:26;;;;;;;3.40;2.13;;;16.10;47.40;;;;;;5035612;28;20101;-77
2021/04/26 08:51:51;;;;;;;2.45;2.17;;;17.40;42.20;;;;;;5031373;28;20093;-78
2021/04/26 08:54:18;;;;;;;3.20;1.75;;;15.80;48.20;;;;;;5036808;28;20033;-77
2021/04/26 08:56:43;;;;;;;2.75;2.05;;;15.10;53.40;;;;;;5027244;28;20024;-78
2021/04/26 08:59:09;;;;;;;5.32;2.75;;;14.90;54.80;;;;;;5019537;28;20538;-77
2021/04/26 09:01:35;;;;;;;3.60;1.98;;;15.20;55.90;;;;;;5037032;28;20227;-78
2021/04/26 09:04:10;;;;;;;5.35;2.15;;;15.90;49.10;;;;;;5032769;28;20431;-78
2021/04/26 09:06:59;;;;;;;3.13;1.92;;;16.60;46.40;;;;;;5038531;28;20456;-78
2021/04/26 09:10:03;;;;;;;5.72;2.10;;;15.70;49.80;;;;;;5036120;28;20029;-78
2021/04/26 09:12:30;;;;;;;2.92;2.08;;;16.20;49.30;;;;;;5049314;28;20039;-78
2021/04/26 09:14:59;;;;;;;5.60;2.25;;;15.60;51.10;;;;;;5035439;28;20420;-78
2021/04/26 09:17:29;;;;;;;3.85;2.40;;;15.30;54.70;;;;;;5054272;28;20042;-77
2021/04/26 09:19:59;;;;;;;2.92;1.75;;;15.30;51.80;;;;;;5019807;28;20059;-77
2021/04/26 09:22:58;;;;;;;7.97;2.50;;;15.40;52.10;;;;;;5035352;28;20037;-78
2021/04/26 09:25:40;;;;;;;4.60;2.13;;;16.00;47.70;;;;;;5001541;28;20044;-78
2021/04/26 09:28:13;;;;;;;6.20;2.53;;;16.10;52.10;;;;;;5035564;28;20036;-78
2021/04/26 09:30:57;;;;;;;4.78;2.25;;;15.70;51.30;;;;;;5035752;28;20422;-77
2021/04/26 09:33:29;;;;;;;5.05;1.83;;;15.60;48.00;;;;;;5046629;28;20029;-78
2021/04/26 09:36:15;;;;;;;4.88;2.30;;;15.80;51.50;;;;;;5035679;28;20037;-78
2021/04/26 09:38:48;;;;;;;4.43;2.28;;;15.70;52.40;;;;;;5054972;28;20102;-78
2021/04/26 09:41:32;;;;;;;3.83;1.95;;;16.00;51.80;;;;;;5019519;28;20035;-77
2021/04/26 09:44:01;;;;;;;3.50;1.80;;;16.00;52.90;;;;;;5034606;28;20024;-77
2021/04/26 09:46:45;;;;;;;2.72;2.30;;;16.20;52.20;;;;;;5052322;28;20040;-78
2021/04/26 09:49:15;;;;;;;5.03;2.30;;;16.40;49.90;;;;;;5072048;28;20127;-78
2021/04/26 09:51:45;;;;;;;5.97;1.88;;;16.20;48.90;;;;;;5036258;28;20043;-78
2021/04/26 09:54:10;;;;;;;4.38;2.20;;;16.40;48.80;;;;;;5037287;28;20113;-78
2021/04/26 09:56:45;;;;;;;3.08;2.60;;;16.90;49.40;;;;;;5020130;28;20503;-77
2021/04/26 09:59:12;;;;;;;4.43;2.38;;;16.60;45.40;;;;;;5016316;28;20043;-77
2021/04/26 10:01:38;;;;;;;6.82;1.95;;;16.60;45.70;;;;;;5020545;28;20247;-78
2021/04/26 10:04:04;;;;;;;5.13;2.60;;;16.50;44.10;;;;;;5019473;28;20728;-77
2021/04/26 10:06:30;;;;;;;3.58;1.92;;;16.60;44.10;;;;;;5032795;28;20170;-78
2021/04/26 10:09:00;;;;;;;5.38;2.22;;;16.80;45.20;;;;;;5017031;28;20123;-78
2021/04/26 10:11:28;;;;;;;4.68;2.67;;;16.60;46.60;;;;;;5051195;28;20040;-77
2021/04/26 10:14:28;;;;;;;4.20;2.60;;;16.60;43.90;;;;;;5016830;28;20033;-77
2021/04/26 10:17:04;;;;;;;4.90;2.25;;;16.80;42.00;;;;;;4988286;28;20602;-78
2021/04/26 10:19:30;;;;;;;5.88;2.85;;;17.30;46.00;;;;;;5026679;28;20112;-78
2021/04/26 10:21:57;;;;;;;5.95;2.50;;;16.90;44.30;;;;;;5017123;28;20036;-79
2021/04/26 10:24:24;;;;;;;8.27;2.72;;;16.80;43.70;;;;;;5034208;28;20036;-78
2021/04/26 10:26:56;;;;;;;5.40;2.70;;;16.90;44.00;;;;;;5033895;28;20021;-78
2021/04/26 10:29:29;;;;;;;3.17;1.90;;;16.90;41.90;;;;;;5018267;28;20031;-79
2021/04/26 10:32:04;;;;;;;3.00;2.28;;;17.90;42.50;;;;;;5034035;28;20056;-79
2021/04/26 10:34:34;;;;;;;5.30;2.95;;;19.10;41.20;;;;;;5053680;28;20124;-79
2021/04/26 10:37:18;;;;;;;5.05;3.50;;;18.10;40.70;;;;;;5033638;28;20462;-79
2021/04/26 10:39:59;;;;;;;5.18;3.15;;;17.80;41.90;;;;;;5033823;28;20029;-79
2021/04/26 10:42:34;;;;;;;5.30;2.78;;;18.30;41.90;;;;;;5051535;28;20182;-79
2021/04/26 10:45:04;;;;;;;3.60;2.20;;;18.20;43.00;;;;;;5048490;28;20029;-80
2021/04/26 10:47:37;;;;;;;4.35;2.50;;;19.10;42.50;;;;;;5036443;28;20638;-80
2021/04/26 10:50:05;;;;;;;5.13;2.83;;;19.50;42.00;;;;;;5024862;28;20094;-79
2021/04/26 10:52:31;;;;;;;5.05;2.45;;;18.70;43.50;;;;;;5070418;28;20529;-80
2021/04/26 10:54:57;;;;;;;4.57;2.65;;;18.60;44.00;;;;;;5064762;28;20116;-79
2021/04/26 10:57:45;;;;;;;4.35;2.50;;;18.60;41.10;;;;;;5021333;28;20119;-80
2021/04/26 11:00:23;;;;;;;3.00;2.30;;;18.30;41.40;;;;;;5033526;28;20037;-80
2021/04/26 11:03:00;;;;;;;3.17;2.17;;;18.60;42.80;;;;;;5049427;28;20479;-80
2021/04/26 11:05:30;;;;;;;4.53;2.50;;;20.50;39.80;;;;;;5048518;28;20021;-80
2021/04/26 11:08:15;;;;;;;7.22;3.10;;;20.00;40.90;;;;;;5041193;28;20031;-80
2021/04/26 11:10:47;;;;;;;6.30;3.17;;;19.00;38.30;;;;;;5035533;28;20369;-80
2021/04/26 11:13:31;;;;;;;5.35;2.78;;;19.10;42.00;;;;;;5049377;28;20029;-79
2021/04/26 11:16:04;;;;;;;6.95;2.40;;;19.20;41.70;;;;;;5053690;28;20392;-80
2021/04/26 11:18:30;;;;;;;4.45;2.70;;;19.40;42.10;;;;;;5016395;28;20403;-80
2021/04/26 11:20:56;;;;;;;5.65;2.95;;;19.70;40.50;;;;;;5018405;28;20029;-80
2021/04/26 11:23:59;;;;;;;4.07;2.92;;;20.20;41.40;;;;;;5033651;28;20043;-79
2021/04/26 11:26:25;;;;;;;4.55;1.80;;;20.30;41.00;;;;;;4951884;28;20392;-79
2021/04/26 11:29:05;;;;;;;6.03;3.22;;;21.30;39.30;;;;;;4969798;28;20058;-79
2021/04/26 11:31:43;;;;;;;5.97;2.78;;;20.60;37.50;;;;;;5005913;28;20048;-78
2021/04/26 11:34:12;;;;;;;5.15;3.33;;;20.70;38.90;;;;;;5067420;28;20066;-78
2021/04/26 11:36:38;;;;;;;4.50;2.63;;;20.30;36.10;;;;;;5051354;28;20111;-78
2021/04/26 11:39:08;;;;;;;4.35;2.53;;;19.60;33.90;;;;;;5052882;28;20590;-78
2021/04/26 11:41:44;;;;;;;10.40;3.05;;;19.50;36.40;;;;;;5031288;28;20037;-79
2021/04/26 11:44:09;;;;;;;;;;;19.60;37.00;;;;;;5031752;28;20063;-79
2021/04/26 11:46:35;;;;;;;5.20;3.17;;;19.80;36.60;;;;;;5049727;28;19912;-78
2021/04/26 11:49:17;;;;;;;4.20;2.90;;;19.90;37.40;;;;;;5035839;28;20024;-78
2021/04/26 11:51:44;;;;;;;4.30;3.20;;;19.80;38.10;;;;;;5035669;28;20032;-78
2021/04/26 11:54:11;;;;;;;5.57;2.85;;;19.60;35.30;;;;;;5021990;28;20450;-78
2021/04/26 11:56:37;;;;;;;5.32;2.65;;;19.60;37.70;;;;;;5047308;28;20124;-78
2021/04/26 11:59:07;;;;;;;8.10;3.88;;;19.70;36.40;;;;;;5032143;28;20052;-78
2021/04/26 12:01:32;;;;;;;4.70;3.00;;;19.50;33.80;;;;;;5057497;28;20436;-78
2021/04/26 12:03:59;;;;;;;5.05;3.40;;;19.60;35.50;;;;;;5032298;28;20112;-78
2021/04/26 12:06:26;;;;;;;11.82;4.35;;;19.60;34.50;;;;;;5054010;28;20131;-78
2021/04/26 12:08:51;;;;;;;6.72;3.90;;;19.50;33.60;;;;;;5015265;28;20048;-78
2021/04/26 12:11:21;;;;;;;5.68;3.80;;;19.40;32.10;;;;;;5034359;28;20024;-78
2021/04/26 12:14:06;;;;;;;6.40;4.13;;;19.40;30.70;;;;;;5035786;28;20487;-78
2021/04/26 12:16:32;;;;;;;5.18;3.58;;;19.30;31.20;;;;;;5048562;28;20339;-78
2021/04/26 12:18:59;;;;;;;5.47;3.47;;;19.50;33.80;;;;;;5032561;28;20088;-78
2021/04/26 12:21:24;;;;;;;6.25;3.58;;;19.40;34.40;;;;;;5040695;28;20024;-79
2021/04/26 12:23:50;;;;;;;5.00;3.72;;;19.50;32.70;;;;;;5047502;28;20028;-79
2021/04/26 12:26:18;;;;;;;7.50;3.70;;;19.40;32.40;;;;;;5020546;28;20572;-78
2021/04/26 12:28:45;;;;;;;4.35;3.20;;;19.30;31.90;;;;;;5043827;28;20039;-78
2021/04/26 12:31:21;;;;;;;3.67;2.67;;;20.80;35.50;;;;;;5035333;28;20460;-79
2021/04/26 12:33:47;;;;;;;7.22;3.05;;;21.20;35.60;;;;;;5036724;28;20110;-79
2021/04/26 12:36:12;;;;;;;9.48;3.35;;;21.50;34.00;;;;;;5016657;28;20111;-79
2021/04/26 12:38:38;;;;;;;5.75;3.75;;;20.90;35.10;;;;;;5035089;28;20035;-79
2021/04/26 12:41:04;;;;;;;6.60;3.30;;;20.40;33.10;;;;;;5030168;28;20028;-79
2021/04/26 12:43:34;;;;;;;7.32;3.30;;;20.60;33.80;;;;;;5047589;28;20031;-78
2021/04/26 12:46:07;;;;;;;12.55;3.55;;;20.70;33.90;;;;;;5034768;28;20020;-79
2021/04/26 12:48:33;;;;;;;4.88;3.50;;;20.50;33.90;;;;;;5036861;28;20021;-78
2021/04/26 12:50:59;;;;;;;4.28;2.53;;;20.40;33.60;;;;;;5017078;28;20032;-79